In Rescue
 
March 04, 2021 3:53 AM EST
Weather Information
Wind Direction
  ---
Wind Speed
  00 kt (0 mph)
Wind Gust
  00 kt (0 mph)
Altimeter
30.11 in
Visibility
10 SM
Temperature
05° C
41° F
Dewpoint
-02° C
28° F
Humidity
61%
Sky Condition
Clear
VFR

METAR KIMS 040853Z AUTO 00000KT 10SM CLR 05/M02 A3011 RMK AO1

FAA Disclaimer: The data displayed is for advisory purposes only and is not to be used for flight planning or operations.